createdAt,value
2023-04-15T00:00:24.419Z,5.44
2023-04-15T00:01:24.370Z,5.47
2023-04-15T00:02:24.432Z,5.40
2023-04-15T00:03:24.454Z,5.41
2023-04-15T00:04:24.425Z,5.44
2023-04-15T00:05:24.517Z,5.35
2023-04-15T00:06:24.331Z,5.38
2023-04-15T00:07:24.556Z,5.29
2023-04-15T00:08:24.827Z,5.30
2023-04-15T00:09:30.632Z,5.33
2023-04-15T00:10:24.354Z,5.14
2023-04-15T00:11:24.339Z,5.20
2023-04-15T00:12:24.322Z,5.22
2023-04-15T00:13:24.318Z,5.20
2023-04-15T00:14:24.335Z,5.19
2023-04-15T00:15:24.283Z,5.24
2023-04-15T00:16:24.364Z,5.23
2023-04-15T00:17:24.606Z,5.14
2023-04-15T00:18:24.287Z,5.17
2023-04-15T00:19:24.292Z,5.17
2023-04-15T00:20:24.282Z,5.09
2023-04-15T00:21:24.295Z,5.17
2023-04-15T00:22:24.282Z,5.06
2023-04-15T00:23:24.411Z,5.09
2023-04-15T00:24:24.212Z,5.12
2023-04-15T00:25:24.245Z,5.04
2023-04-15T00:26:24.243Z,5.08
2023-04-15T00:27:24.172Z,5.04
2023-04-15T00:28:24.242Z,5.09
2023-04-15T00:29:24.244Z,5.11
2023-04-15T00:30:24.202Z,5.02
2023-04-15T00:31:24.320Z,4.99
2023-04-15T00:32:24.229Z,5.06
2023-04-15T00:33:24.164Z,4.84
2023-04-15T00:34:24.167Z,4.99
2023-04-15T00:35:24.183Z,4.91
2023-04-15T00:36:24.166Z,4.99
2023-04-15T00:37:24.138Z,4.93
2023-04-15T00:38:24.124Z,4.91
2023-04-15T00:39:24.127Z,4.88
2023-04-15T00:40:24.125Z,4.90
2023-04-15T00:41:24.175Z,4.96
2023-04-15T00:42:24.131Z,4.87
2023-04-15T00:43:24.100Z,4.80
2023-04-15T00:44:24.122Z,4.71
2023-04-15T00:45:24.088Z,4.64
2023-04-15T00:46:24.270Z,4.61
2023-04-15T00:47:24.113Z,4.67
2023-04-15T00:48:24.092Z,4.57
2023-04-15T00:49:24.088Z,4.64
2023-04-15T00:50:24.094Z,4.61
2023-04-15T00:51:24.043Z,4.61
2023-04-15T00:52:24.107Z,4.62
2023-04-15T00:53:24.092Z,4.68
2023-04-15T00:54:24.045Z,4.61
2023-04-15T00:55:24.004Z,4.64
2023-04-15T00:56:24.046Z,4.67
2023-04-15T00:57:24.028Z,4.59
2023-04-15T00:58:24.010Z,4.62
2023-04-15T00:59:24.047Z,4.61
2023-04-15T01:00:24.128Z,4.53
2023-04-15T01:01:24.035Z,4.64
2023-04-15T01:02:24.217Z,4.62
2023-04-15T01:04:24.087Z,4.59
2023-04-15T01:05:24.047Z,4.56
2023-04-15T01:06:23.975Z,4.65
2023-04-15T01:07:23.972Z,4.59
2023-04-15T01:08:23.971Z,4.68
2023-04-15T01:09:23.924Z,4.46
2023-04-15T01:10:23.939Z,4.64
2023-04-15T01:11:24.015Z,4.54
2023-04-15T01:12:23.937Z,4.53
2023-04-15T01:13:23.928Z,4.46
2023-04-15T01:14:23.929Z,4.44
2023-04-15T01:15:23.887Z,4.51
2023-04-15T01:16:23.906Z,4.44
2023-04-15T01:17:23.950Z,4.46
2023-04-15T01:18:23.884Z,4.51
2023-04-15T01:19:23.840Z,4.51
2023-04-15T01:20:23.842Z,4.43
2023-04-15T01:21:23.805Z,4.53
2023-04-15T01:22:23.852Z,4.47
2023-04-15T01:23:24.300Z,4.49
2023-04-15T01:24:23.845Z,4.44
2023-04-15T01:25:23.804Z,4.46
2023-04-15T01:26:23.807Z,4.46
2023-04-15T01:27:23.806Z,4.56
2023-04-15T01:28:23.809Z,4.51
2023-04-15T01:29:23.851Z,4.44
2023-04-15T01:30:23.803Z,4.38
2023-04-15T01:31:23.794Z,4.46
2023-04-15T01:32:23.789Z,4.44
2023-04-15T01:33:23.764Z,4.43
2023-04-15T01:34:23.760Z,4.47
2023-04-15T01:35:23.801Z,4.47
2023-04-15T01:36:23.775Z,4.44
2023-04-15T01:37:23.725Z,4.44
2023-04-15T01:38:23.725Z,4.39
2023-04-15T01:39:23.683Z,4.43
2023-04-15T01:40:23.723Z,4.28
2023-04-15T01:41:23.769Z,4.38
2023-04-15T01:42:23.692Z,4.39
2023-04-15T01:43:23.643Z,4.39
2023-04-15T01:44:23.685Z,4.43
2023-04-15T01:45:23.688Z,4.36
2023-04-15T01:46:23.703Z,4.36
2023-04-15T01:47:23.679Z,4.36
2023-04-15T01:48:23.647Z,4.32
2023-04-15T01:49:23.605Z,4.34
2023-04-15T01:50:23.648Z,4.28
2023-04-15T01:51:23.649Z,4.38
2023-04-15T01:52:23.651Z,4.35
2023-04-15T01:53:23.609Z,4.32
2023-04-15T01:54:23.611Z,4.20
2023-04-15T01:55:23.612Z,4.28
2023-04-15T01:56:23.609Z,4.32
2023-04-15T01:57:23.566Z,4.11
2023-04-15T01:58:23.611Z,4.13
2023-04-15T01:59:23.609Z,4.24
2023-04-15T02:00:23.538Z,4.13
2023-04-15T02:01:23.658Z,4.00
2023-04-15T02:02:23.681Z,4.14
2023-04-15T02:03:23.660Z,4.16
2023-04-15T02:04:23.575Z,4.17
2023-04-15T02:05:23.570Z,4.18
2023-04-15T02:06:23.542Z,4.25
2023-04-15T02:07:23.535Z,4.20
2023-04-15T02:08:23.552Z,4.18
2023-04-15T02:09:23.532Z,4.21
2023-04-15T02:10:23.543Z,4.25
2023-04-15T02:11:23.531Z,4.16
2023-04-15T02:12:23.531Z,4.17
2023-04-15T02:13:23.488Z,4.20
2023-04-15T02:14:23.496Z,4.08
2023-04-15T02:15:23.490Z,4.16
2023-04-15T02:16:23.528Z,4.07
2023-04-15T02:17:23.525Z,4.07
2023-04-15T02:18:23.448Z,4.13
2023-04-15T02:19:23.455Z,4.00
2023-04-15T02:20:23.490Z,3.99
2023-04-15T02:21:23.451Z,4.00
2023-04-15T02:22:23.416Z,4.00
2023-04-15T02:23:23.457Z,3.86
2023-04-15T02:24:23.414Z,4.00
2023-04-15T02:25:23.408Z,3.95
2023-04-15T02:26:23.419Z,3.88
2023-04-15T02:27:23.413Z,3.80
2023-04-15T02:28:23.336Z,3.86
2023-04-15T02:29:23.814Z,3.81
2023-04-15T02:30:23.365Z,3.77
2023-04-15T02:31:23.374Z,3.84
2023-04-15T02:32:23.438Z,3.70
2023-04-15T02:33:23.298Z,3.84
2023-04-15T02:34:23.290Z,3.80
2023-04-15T02:35:23.341Z,3.82
2023-04-15T02:36:23.329Z,3.80
2023-04-15T02:37:23.305Z,3.71
2023-04-15T02:38:23.289Z,3.67
2023-04-15T02:39:23.290Z,3.72
2023-04-15T02:40:23.293Z,3.75
2023-04-15T02:41:23.343Z,3.81
2023-04-15T02:42:44.315Z,3.81
2023-04-15T02:43:23.265Z,3.72
2023-04-15T02:44:23.210Z,3.74
2023-04-15T02:45:23.253Z,3.63
2023-04-15T02:46:23.300Z,3.78
2023-04-15T02:47:23.320Z,3.72
2023-04-15T02:48:23.253Z,3.74
2023-04-15T02:49:23.254Z,3.71
2023-04-15T02:50:23.217Z,3.74
2023-04-15T02:51:23.215Z,3.70
2023-04-15T02:52:23.217Z,3.67
2023-04-15T02:53:23.216Z,3.71
2023-04-15T02:54:23.168Z,3.70
2023-04-15T02:55:23.211Z,3.72
2023-04-15T02:56:23.107Z,3.78
2023-04-15T02:57:23.101Z,3.70
2023-04-15T02:58:23.097Z,3.67
2023-04-15T02:59:23.159Z,3.56
2023-04-15T03:00:23.093Z,3.62
2023-04-15T03:01:23.093Z,3.53
2023-04-15T03:02:23.149Z,3.60
2023-04-15T03:03:23.145Z,3.49
2023-04-15T03:04:23.057Z,3.49
2023-04-15T03:05:23.091Z,3.57
2023-04-15T03:06:23.070Z,3.57
2023-04-15T03:07:23.070Z,3.67
2023-04-15T03:08:23.029Z,3.63
2023-04-15T03:09:23.034Z,3.56
2023-04-15T03:10:23.036Z,3.56
2023-04-15T03:11:23.042Z,3.57
2023-04-15T03:12:23.055Z,3.63
2023-04-15T03:13:23.001Z,3.63
2023-04-15T03:14:22.986Z,3.59
2023-04-15T03:15:22.988Z,3.54
2023-04-15T03:16:23.006Z,3.53
2023-04-15T03:17:23.057Z,3.54
2023-04-15T03:18:22.952Z,3.56
2023-04-15T03:19:22.972Z,3.56
2023-04-15T03:20:22.981Z,3.68
2023-04-15T03:21:22.959Z,3.60
2023-04-15T03:22:22.918Z,3.60
2023-04-15T03:23:22.966Z,3.57
2023-04-15T03:24:22.920Z,3.59
2023-04-15T03:25:22.946Z,3.62
2023-04-15T03:26:22.900Z,3.63
2023-04-15T03:27:22.909Z,3.64
2023-04-15T03:28:22.901Z,3.64
2023-04-15T03:29:22.916Z,3.63
2023-04-15T03:30:22.877Z,3.74
2023-04-15T03:31:22.932Z,3.70
2023-04-15T03:32:58.908Z,3.68
2023-04-15T03:33:22.864Z,3.70
2023-04-15T03:34:22.881Z,3.78
2023-04-15T03:35:23.264Z,3.74
2023-04-15T03:36:22.836Z,3.63
2023-04-15T03:37:22.831Z,3.68
2023-04-15T03:38:22.843Z,3.62
2023-04-15T03:39:22.835Z,3.64
2023-04-15T03:40:22.837Z,3.68
2023-04-15T03:41:22.865Z,3.71
2023-04-15T03:42:22.793Z,3.63
2023-04-15T03:43:22.796Z,3.77
2023-04-15T03:44:22.794Z,3.63
2023-04-15T03:45:22.775Z,3.64
2023-04-15T03:46:22.814Z,3.59
2023-04-15T03:47:22.801Z,3.59
2023-04-15T03:48:22.846Z,3.67
2023-04-15T03:49:22.731Z,3.60
2023-04-15T03:50:22.730Z,3.68
2023-04-15T03:51:22.749Z,3.60
2023-04-15T03:52:22.732Z,3.60
2023-04-15T03:53:22.790Z,3.60
2023-04-15T03:54:22.739Z,3.56
2023-04-15T03:55:22.707Z,3.52
2023-04-15T03:56:43.693Z,3.54
2023-04-15T03:57:22.668Z,3.56
2023-04-15T03:58:22.689Z,3.56
2023-04-15T03:59:22.707Z,3.46
2023-04-15T04:00:22.659Z,3.53
2023-04-15T04:01:22.718Z,3.52
2023-04-15T04:02:22.896Z,3.59
2023-04-15T04:03:22.795Z,3.71
2023-04-15T04:04:22.772Z,3.82
2023-04-15T04:05:22.674Z,4.17
2023-04-15T04:06:22.647Z,4.14
2023-04-15T04:07:22.608Z,4.25
2023-04-15T04:08:22.620Z,4.25
2023-04-15T04:09:22.685Z,4.28
2023-04-15T04:10:22.591Z,4.21
2023-04-15T04:11:22.637Z,4.28
2023-04-15T04:12:22.615Z,4.36
2023-04-15T04:13:22.570Z,4.49
2023-04-15T04:14:22.573Z,4.44
2023-04-15T04:15:22.609Z,4.39
2023-04-15T04:16:22.670Z,4.32
2023-04-15T04:17:22.628Z,4.34
2023-04-15T04:18:22.522Z,4.31
2023-04-15T04:19:22.532Z,4.18
2023-04-15T04:20:22.590Z,4.26
2023-04-15T04:21:22.528Z,4.17
2023-04-15T04:22:22.524Z,4.17
2023-04-15T04:23:22.623Z,4.35
2023-04-15T04:24:22.507Z,4.28
2023-04-15T04:25:22.528Z,4.35
2023-04-15T04:26:22.474Z,4.21
2023-04-15T04:27:22.452Z,4.21
2023-04-15T04:28:22.475Z,4.17
2023-04-15T04:29:22.506Z,4.07
2023-04-15T04:30:22.458Z,4.10
2023-04-15T04:31:22.475Z,4.18
2023-04-15T04:32:22.479Z,4.11
2023-04-15T04:33:22.456Z,4.16
2023-04-15T04:34:22.464Z,4.29
2023-04-15T04:35:22.478Z,4.26
2023-04-15T04:36:22.397Z,4.29
2023-04-15T04:37:22.552Z,4.39
2023-04-15T04:38:22.405Z,4.51
2023-04-15T04:39:22.388Z,4.47
2023-04-15T04:40:22.387Z,4.46
2023-04-15T04:41:22.635Z,4.54
2023-04-15T04:42:22.385Z,4.53
2023-04-15T04:43:22.374Z,4.50
2023-04-15T04:44:22.387Z,4.57
2023-04-15T04:45:22.351Z,4.56
2023-04-15T04:46:22.454Z,4.59
2023-04-15T04:47:22.409Z,4.57
2023-04-15T04:48:22.333Z,4.68
2023-04-15T04:49:22.319Z,4.62
2023-04-15T04:50:25.237Z,4.64
2023-04-15T04:51:22.332Z,4.62
2023-04-15T04:52:22.297Z,4.68
2023-04-15T04:53:22.343Z,4.57
2023-04-15T04:54:22.274Z,4.61
2023-04-15T04:55:22.304Z,4.65
2023-04-15T04:56:22.271Z,4.62
2023-04-15T04:57:22.264Z,4.61
2023-04-15T04:58:22.270Z,4.56
2023-04-15T04:59:22.333Z,4.61
2023-04-15T05:00:22.244Z,4.64
2023-04-15T05:01:22.277Z,4.69
2023-04-15T05:02:22.337Z,4.67
2023-04-15T05:03:22.377Z,4.69
2023-04-15T05:04:22.217Z,4.65
2023-04-15T05:05:22.249Z,4.64
2023-04-15T05:06:22.209Z,4.67
2023-04-15T05:07:22.197Z,4.77
2023-04-15T05:08:22.201Z,4.75
2023-04-15T05:09:22.197Z,4.77
2023-04-15T05:10:22.168Z,4.79
2023-04-15T05:11:22.206Z,4.91
2023-04-15T05:12:22.170Z,4.83
2023-04-15T05:13:22.187Z,4.88
2023-04-15T05:14:23.424Z,4.86
2023-04-15T05:15:44.572Z,4.88
2023-04-15T05:16:22.185Z,4.88
2023-04-15T05:17:22.215Z,5.02
2023-04-15T05:18:22.130Z,4.99
2023-04-15T05:19:22.115Z,5.01
2023-04-15T05:20:31.863Z,4.99
2023-04-15T05:21:22.087Z,5.01
2023-04-15T05:22:22.109Z,4.99
2023-04-15T05:23:22.189Z,5.01
2023-04-15T05:24:22.101Z,5.06
2023-04-15T05:25:22.100Z,4.86
2023-04-15T05:26:22.113Z,4.96
2023-04-15T05:27:22.067Z,5.05
2023-04-15T05:28:22.091Z,5.02
2023-04-15T05:29:22.090Z,5.01
2023-04-15T05:30:22.075Z,4.97
2023-04-15T05:31:22.124Z,4.99
2023-04-15T05:32:22.068Z,5.09
2023-04-15T05:33:22.041Z,5.05
2023-04-15T05:34:22.008Z,5.12
2023-04-15T05:35:22.053Z,5.01
2023-04-15T05:36:21.998Z,5.12
2023-04-15T05:37:22.024Z,5.12
2023-04-15T05:38:21.977Z,5.04
2023-04-15T05:39:21.998Z,5.20
2023-04-15T05:40:22.105Z,5.23
2023-04-15T05:41:22.171Z,5.26
2023-04-15T05:42:22.016Z,5.26
2023-04-15T05:43:22.026Z,5.26
2023-04-15T05:44:21.945Z,5.26
2023-04-15T05:45:21.940Z,5.24
2023-04-15T05:46:21.977Z,5.22
2023-04-15T05:47:22.760Z,5.27
2023-04-15T05:48:21.916Z,5.19
2023-04-15T05:49:21.895Z,5.29
2023-04-15T05:50:22.041Z,5.33
2023-04-15T05:51:21.951Z,5.55
2023-04-15T05:52:21.929Z,5.58
2023-04-15T05:53:21.928Z,5.65
2023-04-15T05:54:21.970Z,5.52
2023-04-15T05:55:22.023Z,5.58
2023-04-15T05:56:21.901Z,5.73
2023-04-15T05:57:21.860Z,5.56
2023-04-15T05:58:21.900Z,5.59
2023-04-15T05:59:21.913Z,5.69
2023-04-15T06:00:21.927Z,5.63
2023-04-15T06:01:21.950Z,5.67
2023-04-15T06:02:21.914Z,5.69
2023-04-15T06:03:21.897Z,5.56
2023-04-15T06:04:21.946Z,5.59
2023-04-15T06:05:22.068Z,5.69
2023-04-15T06:06:21.916Z,5.73
2023-04-15T06:07:21.800Z,5.81
2023-04-15T06:08:21.787Z,5.98
2023-04-15T06:09:21.781Z,5.96
2023-04-15T06:10:21.833Z,6.01
2023-04-15T06:11:21.803Z,5.95
2023-04-15T06:12:21.792Z,5.92
2023-04-15T06:13:21.737Z,6.01
2023-04-15T06:14:21.795Z,6.08
2023-04-15T06:15:21.743Z,6.01
2023-04-15T06:16:21.778Z,6.08
2023-04-15T06:17:21.781Z,6.14
2023-04-15T06:18:21.719Z,6.14
2023-04-15T06:19:21.700Z,6.17
2023-04-15T06:20:23.757Z,6.21
2023-04-15T06:21:21.935Z,6.25
2023-04-15T06:22:21.753Z,6.24
2023-04-15T06:23:21.719Z,6.32
2023-04-15T06:24:21.706Z,6.24
2023-04-15T06:25:21.878Z,6.24
2023-04-15T06:26:21.637Z,6.21
2023-04-15T06:27:21.663Z,6.33
2023-04-15T06:28:21.775Z,6.43
2023-04-15T06:29:21.744Z,6.43
2023-04-15T06:30:23.921Z,6.46
2023-04-15T06:31:28.406Z,6.54
2023-04-15T06:32:21.642Z,6.64
2023-04-15T06:33:21.613Z,6.53
2023-04-15T06:34:22.101Z,6.30
2023-04-15T06:35:22.681Z,6.32
2023-04-15T06:36:22.154Z,6.40
2023-04-15T06:37:22.055Z,6.43
2023-04-15T06:38:22.418Z,6.43
2023-04-15T06:39:21.617Z,6.42
2023-04-15T06:40:21.564Z,6.28
2023-04-15T06:41:21.632Z,6.38
2023-04-15T06:42:21.640Z,6.43
2023-04-15T06:43:21.721Z,6.28
2023-04-15T06:44:21.919Z,6.35
2023-04-15T06:45:21.905Z,6.28
2023-04-15T06:46:22.169Z,6.38
2023-04-15T06:47:21.743Z,6.51
2023-04-15T06:48:21.768Z,6.42
2023-04-15T06:49:22.315Z,6.50
2023-04-15T06:50:22.044Z,6.58
2023-04-15T06:51:22.344Z,6.76
2023-04-15T06:52:22.049Z,6.69
2023-04-15T06:53:21.892Z,6.82
2023-04-15T06:54:21.600Z,6.94
2023-04-15T06:55:22.023Z,6.99
2023-04-15T06:56:22.101Z,6.96
2023-04-15T06:57:22.209Z,7.15
2023-04-15T06:58:22.340Z,6.90
2023-04-15T06:59:22.297Z,7.05
2023-04-15T07:00:22.161Z,7.14
2023-04-15T07:01:22.252Z,7.01
2023-04-15T07:02:22.148Z,6.87
2023-04-15T07:03:21.658Z,6.82
2023-04-15T07:04:21.760Z,7.09
2023-04-15T07:05:22.539Z,7.11
2023-04-15T07:06:21.625Z,6.86
2023-04-15T07:07:22.125Z,6.86
2023-04-15T07:08:21.458Z,6.89
2023-04-15T07:09:22.200Z,7.04
2023-04-15T07:10:23.927Z,7.16
2023-04-15T07:11:22.475Z,7.27
2023-04-15T07:12:22.200Z,7.34
2023-04-15T07:13:21.958Z,7.36
2023-04-15T07:14:22.182Z,7.21
2023-04-15T07:15:21.998Z,7.23
2023-04-15T07:16:21.843Z,7.48
2023-04-15T07:17:22.199Z,7.51
2023-04-15T07:18:21.438Z,7.60
2023-04-15T07:19:21.670Z,7.62
2023-04-15T07:20:21.890Z,7.45
2023-04-15T07:21:22.143Z,7.47
2023-04-15T07:22:21.798Z,7.70
2023-04-15T07:23:22.431Z,7.71
2023-04-15T07:24:22.017Z,7.77
2023-04-15T07:25:22.015Z,7.79
2023-04-15T07:26:21.950Z,7.73
2023-04-15T07:27:21.934Z,7.74
2023-04-15T07:28:22.043Z,7.79
2023-04-15T07:34:23.460Z,7.76
2023-04-15T07:35:21.946Z,7.57
2023-04-15T07:36:21.997Z,7.63
2023-04-15T07:37:22.027Z,7.70
2023-04-15T07:38:22.051Z,7.66
2023-04-15T07:39:22.056Z,7.71
2023-04-15T07:40:22.309Z,7.84
2023-04-15T07:41:21.969Z,7.84
2023-04-15T07:42:21.962Z,7.79
2023-04-15T07:43:21.910Z,7.86
2023-04-15T07:44:21.415Z,7.82
2023-04-15T07:45:21.866Z,7.82
2023-04-15T07:46:22.053Z,8.07
2023-04-15T07:47:21.634Z,8.06
2023-04-15T07:48:21.774Z,8.21
2023-04-15T07:49:21.575Z,8.31
2023-04-15T07:50:21.850Z,8.13
2023-04-15T07:51:21.503Z,8.31
2023-04-15T07:52:22.256Z,8.58
2023-04-15T07:53:21.844Z,8.71
2023-04-15T07:54:21.543Z,8.63
2023-04-15T07:55:21.261Z,8.50
2023-04-15T07:56:21.361Z,8.32
2023-04-15T07:57:21.775Z,8.46
2023-04-15T07:58:21.728Z,8.49
2023-04-15T07:59:21.881Z,8.61
2023-04-15T08:00:21.609Z,8.58
2023-04-15T08:01:21.592Z,8.60
2023-04-15T08:02:21.752Z,8.83
2023-04-15T08:03:21.771Z,9.10
2023-04-15T08:04:22.302Z,9.32
2023-04-15T08:05:21.652Z,9.38
2023-04-15T08:06:21.807Z,9.35
2023-04-15T08:07:21.640Z,9.50
2023-04-15T08:08:21.679Z,9.67
2023-04-15T08:09:22.784Z,9.71
2023-04-15T08:10:21.999Z,9.99
2023-04-15T08:11:21.489Z,9.96
2023-04-15T08:12:21.445Z,9.80
2023-04-15T08:13:21.522Z,9.98
2023-04-15T08:14:29.908Z,10.14
2023-04-15T08:15:22.996Z,10.51
2023-04-15T08:16:21.845Z,10.24
2023-04-15T08:17:21.407Z,10.38
2023-04-15T08:18:21.537Z,10.69
2023-04-15T08:19:21.828Z,10.65
2023-04-15T08:20:21.991Z,10.54
2023-04-15T08:21:22.145Z,10.83
2023-04-15T08:22:22.458Z,10.91
2023-04-15T08:23:21.780Z,10.81
2023-04-15T08:24:21.685Z,10.73
2023-04-15T08:25:21.366Z,10.81
2023-04-15T08:26:21.079Z,10.72
2023-04-15T08:27:22.011Z,10.11
2023-04-15T08:28:21.388Z,10.16
2023-04-15T08:29:21.354Z,10.18
2023-04-15T08:30:21.532Z,10.34
2023-04-15T08:31:21.440Z,10.49
2023-04-15T08:32:21.627Z,10.47
2023-04-15T08:33:21.810Z,10.73
2023-04-15T08:34:21.420Z,10.65
2023-04-15T08:35:21.321Z,10.65
2023-04-15T08:36:21.639Z,10.36
2023-04-15T08:37:21.563Z,10.55
2023-04-15T08:38:21.310Z,10.46
2023-04-15T08:39:21.833Z,10.26
2023-04-15T08:40:21.495Z,10.18
2023-04-15T08:41:21.502Z,9.99
2023-04-15T08:42:21.588Z,10.02
2023-04-15T08:43:21.499Z,9.73
2023-04-15T08:44:21.416Z,9.78
2023-04-15T08:45:21.723Z,9.59
2023-04-15T08:46:21.602Z,9.75
2023-04-15T08:47:21.372Z,9.62
2023-04-15T08:48:21.425Z,9.67
2023-04-15T08:49:21.447Z,9.60
2023-04-15T08:50:21.229Z,9.62
2023-04-15T08:51:23.228Z,9.50
2023-04-15T08:52:21.438Z,9.48
2023-04-15T08:53:21.520Z,9.53
2023-04-15T08:54:22.348Z,9.58
2023-04-15T08:55:21.462Z,9.45
2023-04-15T08:56:22.531Z,9.55
2023-04-15T08:57:21.556Z,9.62
2023-04-15T08:58:21.466Z,9.74
2023-04-15T08:59:21.453Z,9.71
2023-04-15T09:00:21.473Z,9.65
2023-04-15T09:01:21.496Z,9.70
2023-04-15T09:02:21.576Z,9.80
2023-04-15T09:03:22.377Z,9.85
2023-04-15T09:04:22.311Z,9.74
2023-04-15T09:05:21.350Z,9.71
2023-04-15T09:06:21.360Z,9.83
2023-04-15T09:07:21.356Z,9.77
2023-04-15T09:08:21.430Z,9.83
2023-04-15T09:09:21.700Z,9.98
2023-04-15T09:10:21.410Z,9.88
2023-04-15T09:11:21.416Z,9.71
2023-04-15T09:12:21.332Z,9.59
2023-04-15T09:13:21.435Z,9.59
2023-04-15T09:14:21.397Z,9.59
2023-04-15T09:15:21.815Z,9.71
2023-04-15T09:16:21.397Z,9.71
2023-04-15T09:17:21.336Z,9.41
2023-04-15T09:18:21.411Z,9.37
2023-04-15T09:19:21.267Z,9.32
2023-04-15T09:20:21.314Z,9.22
2023-04-15T09:21:21.693Z,9.22
2023-04-15T09:22:21.303Z,9.23
2023-04-15T09:23:22.294Z,9.31
2023-04-15T09:24:21.315Z,9.12
2023-04-15T09:25:21.291Z,9.06
2023-04-15T09:26:21.315Z,9.23
2023-04-15T09:27:21.758Z,9.10
2023-04-15T09:28:21.270Z,9.15
2023-04-15T09:29:21.343Z,9.16
2023-04-15T09:30:21.284Z,9.35
2023-04-15T09:31:21.212Z,9.45
2023-04-15T09:32:21.311Z,9.35
2023-04-15T09:33:22.658Z,9.22
2023-04-15T09:34:21.243Z,9.08
2023-04-15T09:35:21.220Z,9.20
2023-04-15T09:36:21.218Z,9.19
2023-04-15T09:37:31.618Z,9.24
2023-04-15T09:38:23.225Z,9.30
2023-04-15T09:39:21.723Z,9.31
2023-04-15T09:40:22.198Z,9.31
2023-04-15T09:41:21.146Z,9.42
2023-04-15T09:42:21.309Z,9.59
2023-04-15T09:43:21.135Z,9.50
2023-04-15T09:44:21.103Z,9.62
2023-04-15T09:45:21.631Z,9.52
2023-04-15T09:46:22.266Z,9.65
2023-04-15T09:47:21.158Z,9.58
2023-04-15T09:48:21.138Z,9.56
2023-04-15T09:49:21.219Z,9.55
2023-04-15T09:50:21.123Z,9.52
2023-04-15T09:51:21.818Z,9.78
2023-04-15T09:52:21.143Z,9.68
2023-04-15T09:53:21.089Z,9.70
2023-04-15T09:54:21.043Z,9.60
2023-04-15T09:55:21.027Z,9.59
2023-04-15T09:56:21.011Z,9.42
2023-04-15T09:57:21.484Z,9.45
2023-04-15T09:58:21.094Z,9.56
2023-04-15T09:59:21.888Z,9.68
2023-04-15T10:00:20.905Z,9.67
2023-04-15T10:01:20.970Z,9.56
2023-04-15T10:02:21.067Z,9.62
2023-04-15T10:03:21.804Z,9.70
2023-04-15T10:04:20.921Z,9.53
2023-04-15T10:05:22.108Z,9.49
2023-04-15T10:06:20.956Z,9.40
2023-04-15T10:07:21.011Z,9.34
2023-04-15T10:08:20.925Z,9.42
2023-04-15T10:09:21.978Z,9.48
2023-04-15T10:10:20.946Z,9.41
2023-04-15T10:11:20.823Z,9.38
2023-04-15T10:12:20.996Z,9.24
2023-04-15T10:13:20.924Z,9.12
2023-04-15T10:14:20.959Z,9.15
2023-04-15T10:15:22.478Z,9.12
2023-04-15T10:16:22.011Z,9.17
2023-04-15T10:17:20.941Z,9.23
2023-04-15T10:18:20.940Z,9.22
2023-04-15T10:19:20.938Z,9.30
2023-04-15T10:20:20.901Z,9.19
2023-04-15T10:21:21.313Z,9.30
2023-04-15T10:22:21.755Z,9.32
2023-04-15T10:23:21.914Z,9.24
2023-04-15T10:24:20.955Z,9.12
2023-04-15T10:25:20.927Z,9.12
2023-04-15T10:26:20.856Z,9.06
2023-04-15T10:27:21.391Z,9.16
2023-04-15T10:28:20.885Z,9.06
2023-04-15T10:29:20.832Z,9.13
2023-04-15T10:30:20.696Z,9.20
2023-04-15T10:31:20.824Z,9.22
2023-04-15T10:32:20.875Z,9.31
2023-04-15T10:33:21.276Z,9.23
2023-04-15T10:34:20.723Z,9.37
2023-04-15T10:35:20.476Z,9.40
2023-04-15T10:36:21.176Z,9.34
2023-04-15T10:37:20.695Z,9.34
2023-04-15T10:38:20.775Z,9.58
2023-04-15T10:39:21.214Z,9.65
2023-04-15T10:40:20.682Z,9.62
2023-04-15T10:41:22.041Z,9.77
2023-04-15T10:42:20.786Z,9.91
2023-04-15T10:43:20.726Z,9.71
2023-04-15T10:44:20.753Z,9.58
2023-04-15T10:45:22.960Z,9.53
2023-04-15T10:46:20.700Z,9.58
2023-04-15T10:47:20.594Z,9.55
2023-04-15T10:48:20.704Z,9.59
2023-04-15T10:49:20.555Z,9.52
2023-04-15T10:50:20.626Z,9.50
2023-04-15T10:51:21.034Z,9.59
2023-04-15T10:52:20.405Z,9.41
2023-04-15T10:53:21.809Z,9.45
2023-04-15T10:54:20.552Z,9.70
2023-04-15T10:55:20.502Z,9.60
2023-04-15T10:56:20.500Z,9.70
2023-04-15T10:57:21.162Z,9.68
2023-04-15T10:58:20.646Z,9.65
2023-04-15T10:59:21.954Z,9.67
2023-04-15T11:00:20.599Z,9.73
2023-04-15T11:01:20.601Z,9.56
2023-04-15T11:02:20.718Z,9.32
2023-04-15T11:03:21.221Z,9.30
2023-04-15T11:04:20.534Z,9.35
2023-04-15T11:05:20.572Z,9.32
2023-04-15T11:06:20.433Z,9.37
2023-04-15T11:07:20.456Z,9.34
2023-04-15T11:08:20.598Z,9.20
2023-04-15T11:09:20.954Z,9.31
2023-04-15T11:10:20.470Z,9.31
2023-04-15T11:11:20.557Z,9.32
2023-04-15T11:12:20.522Z,9.44
2023-04-15T11:13:20.483Z,9.49
2023-04-15T11:14:20.468Z,9.53
2023-04-15T11:15:21.052Z,9.55
2023-04-15T11:16:21.491Z,9.42
2023-04-15T11:17:21.390Z,9.48
2023-04-15T11:18:20.523Z,9.44
2023-04-15T11:19:20.562Z,9.42
2023-04-15T11:20:23.281Z,9.35
2023-04-15T11:21:20.942Z,9.30
2023-04-15T11:22:20.439Z,9.41
2023-04-15T11:23:20.428Z,9.38
2023-04-15T11:24:20.468Z,9.42
2023-04-15T11:25:20.412Z,9.34
2023-04-15T11:26:20.457Z,9.38
2023-04-15T11:27:20.942Z,9.52
2023-04-15T11:28:20.434Z,9.63
2023-04-15T11:29:20.309Z,9.71
2023-04-15T11:30:20.393Z,9.63
2023-04-15T11:31:20.498Z,9.58
2023-04-15T11:32:20.438Z,9.63
2023-04-15T11:33:20.913Z,9.63
2023-04-15T11:34:20.360Z,9.73
2023-04-15T11:35:20.369Z,9.44
2023-04-15T11:36:20.361Z,9.45
2023-04-15T11:37:20.358Z,9.50
2023-04-15T11:38:20.300Z,9.62
2023-04-15T11:39:20.740Z,9.58
2023-04-15T11:40:20.137Z,9.58
2023-04-15T11:41:20.320Z,9.58
2023-04-15T11:42:20.274Z,9.37
2023-04-15T11:43:20.236Z,9.15
2023-04-15T11:44:20.377Z,9.24
2023-04-15T11:45:20.780Z,9.15
2023-04-15T11:46:20.302Z,9.08
2023-04-15T11:47:20.316Z,9.31
2023-04-15T11:48:20.194Z,9.27
2023-04-15T11:49:20.117Z,9.23
2023-04-15T11:50:20.306Z,9.27
2023-04-15T11:51:20.831Z,9.10
2023-04-15T11:52:22.974Z,9.00
2023-04-15T11:53:20.208Z,9.10
2023-04-15T11:54:20.182Z,9.13
2023-04-15T11:55:21.187Z,9.26
2023-04-15T11:56:20.253Z,9.42
2023-04-15T11:57:20.701Z,9.50
2023-04-15T11:58:20.253Z,9.56
2023-04-15T11:59:21.225Z,9.68
2023-04-15T12:00:19.995Z,9.62
2023-04-15T12:01:20.107Z,9.55
2023-04-15T12:02:20.186Z,9.70
2023-04-15T12:03:20.797Z,9.49
2023-04-15T12:04:22.540Z,9.45
2023-04-15T12:05:21.121Z,9.37
2023-04-15T12:06:20.134Z,9.17
2023-04-15T12:07:19.989Z,9.19
2023-04-15T12:08:20.072Z,9.06
2023-04-15T12:09:20.517Z,9.06
2023-04-15T12:10:19.799Z,9.12
2023-04-15T12:11:20.024Z,9.19
2023-04-15T12:12:20.100Z,9.12
2023-04-15T12:13:23.081Z,9.31
2023-04-15T12:14:20.158Z,9.22
2023-04-15T12:15:22.601Z,9.30
2023-04-15T12:16:20.153Z,9.12
2023-04-15T12:17:20.127Z,9.15
2023-04-15T12:18:20.016Z,9.20
2023-04-15T12:19:19.992Z,9.30
2023-04-15T12:20:20.064Z,9.41
2023-04-15T12:21:20.577Z,9.20
2023-04-15T12:22:20.110Z,9.20
2023-04-15T12:23:20.020Z,9.20
2023-04-15T12:24:20.070Z,9.24
2023-04-15T12:25:20.011Z,9.22
2023-04-15T12:26:19.899Z,9.30
2023-04-15T12:27:20.519Z,9.31
2023-04-15T12:28:20.962Z,9.34
2023-04-15T12:29:20.035Z,9.16
2023-04-15T12:30:20.031Z,9.31
2023-04-15T12:31:19.992Z,9.34
2023-04-15T12:32:20.011Z,9.42
2023-04-15T12:33:21.591Z,9.48
2023-04-15T12:34:19.997Z,9.49
2023-04-15T12:35:19.985Z,9.49
2023-04-15T12:36:19.924Z,9.56
2023-04-15T12:37:21.034Z,9.27
2023-04-15T12:38:19.929Z,9.44
2023-04-15T12:39:20.410Z,9.45
2023-04-15T12:40:19.958Z,9.38
2023-04-15T12:41:19.949Z,9.59
2023-04-15T12:42:19.925Z,9.53
2023-04-15T12:43:19.885Z,9.52
2023-04-15T12:44:19.757Z,9.68
2023-04-15T12:45:20.288Z,9.62
2023-04-15T12:46:19.954Z,9.70
2023-04-15T12:47:19.846Z,9.58
2023-04-15T12:48:19.879Z,9.32
2023-04-15T12:49:19.831Z,9.23
2023-04-15T12:50:19.832Z,9.38
2023-04-15T12:51:20.366Z,9.38
2023-04-15T12:52:19.837Z,9.49
2023-04-15T12:53:19.826Z,9.58
2023-04-15T12:54:19.774Z,9.50
2023-04-15T12:55:19.858Z,9.55
2023-04-15T12:56:19.807Z,9.56
2023-04-15T12:57:20.347Z,9.32
2023-04-15T12:58:19.785Z,9.24
2023-04-15T12:59:20.827Z,9.37
2023-04-15T13:00:21.425Z,9.27
2023-04-15T13:01:19.805Z,9.10
2023-04-15T13:02:19.899Z,9.30
2023-04-15T13:03:20.304Z,9.17
2023-04-15T13:04:20.692Z,9.26
2023-04-15T13:05:19.759Z,9.20
2023-04-15T13:06:19.681Z,9.30
2023-04-15T13:07:19.729Z,9.34
2023-04-15T13:08:19.727Z,9.08
2023-04-15T13:09:20.206Z,9.12
2023-04-15T13:10:19.657Z,9.17
2023-04-15T13:11:19.519Z,9.19
2023-04-15T13:12:19.687Z,9.24
2023-04-15T13:13:19.569Z,9.30
2023-04-15T13:14:19.668Z,9.42
2023-04-15T13:15:20.141Z,9.48
2023-04-15T13:16:19.716Z,9.55
2023-04-15T13:17:19.656Z,9.49
2023-04-15T13:18:19.628Z,9.53
2023-04-15T13:19:19.641Z,9.44
2023-04-15T13:20:20.219Z,9.52
2023-04-15T13:21:20.052Z,9.52
2023-04-15T13:22:19.599Z,9.48
2023-04-15T13:23:19.630Z,9.42